sensor_id;sensor_type;location;lat;lon;timestamp;pressure;altitude;pressure_sealevel;temperature;humidity
55010;BME280;40903;51.638;7.528;2023-01-30T00:00:15;101205.81;;;3.57;100.00
55010;BME280;40903;51.638;7.528;2023-01-30T00:02:40;101207.44;;;3.58;100.00
55010;BME280;40903;51.638;7.528;2023-01-30T00:05:05;101211.09;;;3.63;100.00
55010;BME280;40903;51.638;7.528;2023-01-30T00:07:30;101195.13;;;3.73;100.00
55010;BME280;40903;51.638;7.528;2023-01-30T00:09:56;101202.28;;;3.68;100.00
55010;BME280;40903;51.638;7.528;2023-01-30T00:12:21;101211.56;;;3.72;100.00
55010;BME280;40903;51.638;7.528;2023-01-30T00:14:46;101216.97;;;3.72;100.00
55010;BME280;40903;51.638;7.528;2023-01-30T00:17:11;101212.25;;;3.78;100.00
55010;BME280;40903;51.638;7.528;2023-01-30T00:19:37;101219.28;;;3.79;100.00
55010;BME280;40903;51.638;7.528;2023-01-30T00:22:02;101231.97;;;3.79;100.00
55010;BME280;40903;51.638;7.528;2023-01-30T00:24:27;101207.91;;;3.78;100.00
55010;BME280;40903;51.638;7.528;2023-01-30T00:26:52;101208.16;;;3.87;100.00
55010;BME280;40903;51.638;7.528;2023-01-30T00:29:17;101183.28;;;3.97;100.00
55010;BME280;40903;51.638;7.528;2023-01-30T00:31:42;101188.91;;;3.95;100.00
55010;BME280;40903;51.638;7.528;2023-01-30T00:34:08;101184.09;;;3.97;100.00
55010;BME280;40903;51.638;7.528;2023-01-30T00:36:33;101177.53;;;3.93;100.00
55010;BME280;40903;51.638;7.528;2023-01-30T00:38:58;101160.66;;;3.86;100.00
55010;BME280;40903;51.638;7.528;2023-01-30T00:41:23;101153.97;;;4.00;100.00
55010;BME280;40903;51.638;7.528;2023-01-30T00:44:09;101138.59;;;4.01;100.00
55010;BME280;40903;51.638;7.528;2023-01-30T00:46:52;101130.84;;;4.04;100.00
55010;BME280;40903;51.638;7.528;2023-01-30T00:49:29;101146.09;;;3.99;100.00
55010;BME280;40903;51.638;7.528;2023-01-30T00:51:55;101146.56;;;4.07;100.00
55010;BME280;40903;51.638;7.528;2023-01-30T00:54:20;101138.47;;;4.07;100.00
55010;BME280;40903;51.638;7.528;2023-01-30T00:56:45;101136.91;;;4.11;100.00
55010;BME280;40903;51.638;7.528;2023-01-30T00:59:10;101140.44;;;4.12;100.00
55010;BME280;40903;51.638;7.528;2023-01-30T01:01:35;101125.69;;;4.14;100.00
55010;BME280;40903;51.638;7.528;2023-01-30T01:04:01;101119.22;;;4.15;100.00
55010;BME280;40903;51.638;7.528;2023-01-30T01:06:27;101129.31;;;4.08;100.00
55010;BME280;40903;51.638;7.528;2023-01-30T01:08:52;101121.34;;;4.13;100.00
55010;BME280;40903;51.638;7.528;2023-01-30T01:11:17;101120.59;;;4.18;100.00
55010;BME280;40903;51.638;7.528;2023-01-30T01:13:48;101107.94;;;4.18;100.00
55010;BME280;40903;51.638;7.528;2023-01-30T01:16:13;101102.41;;;4.25;100.00
55010;BME280;40903;51.638;7.528;2023-01-30T01:18:39;101103.13;;;4.20;100.00
55010;BME280;40903;51.638;7.528;2023-01-30T01:21:04;101096.19;;;4.24;100.00
55010;BME280;40903;51.638;7.528;2023-01-30T01:23:29;101092.66;;;4.24;100.00
55010;BME280;40903;51.638;7.528;2023-01-30T01:25:54;101089.84;;;4.30;100.00
55010;BME280;40903;51.638;7.528;2023-01-30T01:28:19;101081.16;;;4.28;100.00
55010;BME280;40903;51.638;7.528;2023-01-30T01:30:46;101069.44;;;4.23;100.00
55010;BME280;40903;51.638;7.528;2023-01-30T01:33:11;101059.09;;;4.31;100.00
55010;BME280;40903;51.638;7.528;2023-01-30T01:35:39;101059.09;;;4.31;100.00
55010;BME280;40903;51.638;7.528;2023-01-30T01:38:04;101078.19;;;4.30;100.00
55010;BME280;40903;51.638;7.528;2023-01-30T01:40:29;101064.13;;;4.28;100.00
55010;BME280;40903;51.638;7.528;2023-01-30T01:43:14;101074.09;;;4.27;100.00
55010;BME280;40903;51.638;7.528;2023-01-30T01:45:40;101073.28;;;4.27;100.00
55010;BME280;40903;51.638;7.528;2023-01-30T01:48:14;101066.47;;;4.24;100.00
55010;BME280;40903;51.638;7.528;2023-01-30T01:53:05;101065.28;;;4.32;100.00
55010;BME280;40903;51.638;7.528;2023-01-30T01:55:31;101065.78;;;4.29;100.00
55010;BME280;40903;51.638;7.528;2023-01-30T01:58:58;101043.38;;;4.28;100.00
55010;BME280;40903;51.638;7.528;2023-01-30T02:00:51;101050.56;;;4.23;100.00
55010;BME280;40903;51.638;7.528;2023-01-30T02:03:18;101040.69;;;4.17;100.00
55010;BME280;40903;51.638;7.528;2023-01-30T02:05:46;101053.13;;;4.18;100.00
55010;BME280;40903;51.638;7.528;2023-01-30T02:08:13;101029.28;;;4.26;100.00
55010;BME280;40903;51.638;7.528;2023-01-30T02:10:48;101038.56;;;4.30;100.00
55010;BME280;40903;51.638;7.528;2023-01-30T02:13:14;101021.78;;;4.28;100.00
55010;BME280;40903;51.638;7.528;2023-01-30T02:15:40;101024.00;;;4.31;100.00
55010;BME280;40903;51.638;7.528;2023-01-30T02:18:05;101001.06;;;4.34;100.00
55010;BME280;40903;51.638;7.528;2023-01-30T02:35:46;100978.25;;;4.41;100.00
55010;BME280;40903;51.638;7.528;2023-01-30T02:38:24;100973.69;;;4.42;100.00
55010;BME280;40903;51.638;7.528;2023-01-30T02:41:12;100971.81;;;4.42;100.00
55010;BME280;40903;51.638;7.528;2023-01-30T02:43:45;100976.97;;;4.44;100.00
55010;BME280;40903;51.638;7.528;2023-01-30T02:46:19;100970.00;;;4.48;100.00
55010;BME280;40903;51.638;7.528;2023-01-30T02:48:52;100972.72;;;4.48;100.00
55010;BME280;40903;51.638;7.528;2023-01-30T02:51:21;100967.66;;;4.51;100.00
55010;BME280;40903;51.638;7.528;2023-01-30T02:53:48;100971.03;;;4.58;100.00
55010;BME280;40903;51.638;7.528;2023-01-30T02:56:14;100963.94;;;4.57;100.00
55010;BME280;40903;51.638;7.528;2023-01-30T02:58:41;100958.56;;;4.57;100.00
55010;BME280;40903;51.638;7.528;2023-01-30T03:09:14;100930.66;;;4.68;100.00
55010;BME280;40903;51.638;7.528;2023-01-30T03:11:44;100925.09;;;4.75;100.00
55010;BME280;40903;51.638;7.528;2023-01-30T03:14:13;100918.13;;;4.79;100.00
55010;BME280;40903;51.638;7.528;2023-01-30T03:16:43;100922.06;;;4.71;100.00
55010;BME280;40903;51.638;7.528;2023-01-30T03:19:11;100908.56;;;4.71;100.00
55010;BME280;40903;51.638;7.528;2023-01-30T03:21:43;100911.34;;;4.76;100.00
55010;BME280;40903;51.638;7.528;2023-01-30T03:24:09;100909.53;;;4.82;100.00
55010;BME280;40903;51.638;7.528;2023-01-30T03:26:34;100905.44;;;4.79;100.00
55010;BME280;40903;51.638;7.528;2023-01-30T03:29:01;100893.63;;;4.85;100.00
55010;BME280;40903;51.638;7.528;2023-01-30T03:31:26;100903.06;;;4.83;100.00
55010;BME280;40903;51.638;7.528;2023-01-30T03:33:52;100895.53;;;4.85;100.00
55010;BME280;40903;51.638;7.528;2023-01-30T03:36:17;100891.25;;;4.89;100.00
55010;BME280;40903;51.638;7.528;2023-01-30T03:38:42;100889.94;;;4.91;100.00
55010;BME280;40903;51.638;7.528;2023-01-30T03:41:07;100886.50;;;4.96;100.00
55010;BME280;40903;51.638;7.528;2023-01-30T03:43:33;100879.72;;;4.93;100.00
55010;BME280;40903;51.638;7.528;2023-01-30T03:45:58;100873.00;;;4.96;100.00
55010;BME280;40903;51.638;7.528;2023-01-30T03:48:23;100861.38;;;4.95;100.00
55010;BME280;40903;51.638;7.528;2023-01-30T03:50:48;100857.09;;;4.99;100.00
55010;BME280;40903;51.638;7.528;2023-01-30T03:53:14;100861.75;;;5.04;100.00
55010;BME280;40903;51.638;7.528;2023-01-30T03:55:39;100846.84;;;5.01;100.00
55010;BME280;40903;51.638;7.528;2023-01-30T03:58:04;100850.19;;;5.08;100.00
55010;BME280;40903;51.638;7.528;2023-01-30T04:00:30;100843.38;;;5.06;100.00
55010;BME280;40903;51.638;7.528;2023-01-30T04:02:55;100842.25;;;5.02;100.00
55010;BME280;40903;51.638;7.528;2023-01-30T04:05:21;100847.09;;;5.00;100.00
55010;BME280;40903;51.638;7.528;2023-01-30T04:07:46;100854.38;;;4.99;100.00
55010;BME280;40903;51.638;7.528;2023-01-30T04:10:11;100852.50;;;5.00;100.00
55010;BME280;40903;51.638;7.528;2023-01-30T04:12:39;100845.59;;;5.09;100.00
55010;BME280;40903;51.638;7.528;2023-01-30T04:15:05;100846.97;;;5.11;100.00
55010;BME280;40903;51.638;7.528;2023-01-30T04:17:30;100843.72;;;5.09;100.00
55010;BME280;40903;51.638;7.528;2023-01-30T04:19:55;100848.56;;;5.07;100.00
55010;BME280;40903;51.638;7.528;2023-01-30T04:22:20;100843.47;;;5.11;100.00
55010;BME280;40903;51.638;7.528;2023-01-30T04:24:45;100840.69;;;5.06;100.00
55010;BME280;40903;51.638;7.528;2023-01-30T04:27:11;100833.31;;;5.01;100.00
55010;BME280;40903;51.638;7.528;2023-01-30T04:29:36;100832.84;;;5.04;100.00
55010;BME280;40903;51.638;7.528;2023-01-30T04:32:01;100834.16;;;5.02;100.00
55010;BME280;40903;51.638;7.528;2023-01-30T04:34:26;100833.66;;;5.05;100.00
55010;BME280;40903;51.638;7.528;2023-01-30T04:36:51;100819.34;;;5.04;100.00
55010;BME280;40903;51.638;7.528;2023-01-30T04:39:17;100829.56;;;5.02;100.00
55010;BME280;40903;51.638;7.528;2023-01-30T04:41:42;100842.03;;;5.03;100.00
55010;BME280;40903;51.638;7.528;2023-01-30T04:44:07;100833.69;;;5.10;100.00
55010;BME280;40903;51.638;7.528;2023-01-30T04:46:32;100836.50;;;5.15;100.00
55010;BME280;40903;51.638;7.528;2023-01-30T04:48:57;100832.16;;;5.14;100.00
55010;BME280;40903;51.638;7.528;2023-01-30T04:51:23;100829.69;;;5.12;100.00
55010;BME280;40903;51.638;7.528;2023-01-30T04:53:48;100828.38;;;5.15;100.00
55010;BME280;40903;51.638;7.528;2023-01-30T04:56:13;100819.94;;;5.11;100.00
55010;BME280;40903;51.638;7.528;2023-01-30T04:58:38;100824.84;;;5.14;100.00
55010;BME280;40903;51.638;7.528;2023-01-30T05:01:13;100819.25;;;5.21;100.00
55010;BME280;40903;51.638;7.528;2023-01-30T05:03:39;100816.56;;;5.21;100.00
55010;BME280;40903;51.638;7.528;2023-01-30T05:06:04;100816.81;;;5.19;100.00
55010;BME280;40903;51.638;7.528;2023-01-30T05:08:29;100827.63;;;5.19;100.00
55010;BME280;40903;51.638;7.528;2023-01-30T05:10:56;100812.84;;;5.27;100.00
55010;BME280;40903;51.638;7.528;2023-01-30T05:13:21;100821.41;;;5.19;100.00
55010;BME280;40903;51.638;7.528;2023-01-30T05:15:47;100800.59;;;5.19;100.00
55010;BME280;40903;51.638;7.528;2023-01-30T05:18:12;100814.22;;;5.29;100.00
55010;BME280;40903;51.638;7.528;2023-01-30T05:20:37;100804.47;;;5.28;100.00
55010;BME280;40903;51.638;7.528;2023-01-30T05:23:02;100787.69;;;5.26;100.00
55010;BME280;40903;51.638;7.528;2023-01-30T05:25:27;100783.47;;;5.35;100.00
55010;BME280;40903;51.638;7.528;2023-01-30T05:27:52;100787.50;;;5.33;100.00
55010;BME280;40903;51.638;7.528;2023-01-30T05:30:18;100784.59;;;5.39;100.00
55010;BME280;40903;51.638;7.528;2023-01-30T05:32:43;100779.44;;;5.38;100.00
55010;BME280;40903;51.638;7.528;2023-01-30T05:35:08;100770.59;;;5.47;100.00
55010;BME280;40903;51.638;7.528;2023-01-30T05:37:33;100765.78;;;5.49;100.00
55010;BME280;40903;51.638;7.528;2023-01-30T05:39:59;100782.25;;;5.48;100.00
55010;BME280;40903;51.638;7.528;2023-01-30T05:42:24;100793.31;;;5.46;100.00
55010;BME280;40903;51.638;7.528;2023-01-30T05:44:49;100786.81;;;5.47;100.00
55010;BME280;40903;51.638;7.528;2023-01-30T05:47:14;100778.16;;;5.45;100.00
55010;BME280;40903;51.638;7.528;2023-01-30T05:49:39;100793.84;;;5.48;100.00
55010;BME280;40903;51.638;7.528;2023-01-30T05:52:04;100785.25;;;5.51;100.00
55010;BME280;40903;51.638;7.528;2023-01-30T05:54:30;100783.88;;;5.49;100.00
55010;BME280;40903;51.638;7.528;2023-01-30T05:56:55;100782.00;;;5.49;100.00
55010;BME280;40903;51.638;7.528;2023-01-30T05:59:20;100779.84;;;5.51;100.00
55010;BME280;40903;51.638;7.528;2023-01-30T06:01:45;100771.25;;;5.59;100.00
55010;BME280;40903;51.638;7.528;2023-01-30T06:04:10;100770.75;;;5.62;100.00
55010;BME280;40903;51.638;7.528;2023-01-30T06:06:36;100791.91;;;5.65;100.00
55010;BME280;40903;51.638;7.528;2023-01-30T06:09:01;100784.53;;;5.61;100.00
55010;BME280;40903;51.638;7.528;2023-01-30T06:11:26;100797.00;;;5.62;100.00
55010;BME280;40903;51.638;7.528;2023-01-30T06:13:52;100799.41;;;5.63;100.00
55010;BME280;40903;51.638;7.528;2023-01-30T06:16:17;100784.84;;;5.64;100.00
55010;BME280;40903;51.638;7.528;2023-01-30T06:18:43;100780.00;;;5.66;100.00
55010;BME280;40903;51.638;7.528;2023-01-30T06:21:11;100782.75;;;5.71;100.00
55010;BME280;40903;51.638;7.528;2023-01-30T06:23:37;100785.47;;;5.76;100.00
55010;BME280;40903;51.638;7.528;2023-01-30T06:26:02;100799.53;;;5.73;100.00
55010;BME280;40903;51.638;7.528;2023-01-30T06:28:28;100791.44;;;5.78;100.00
55010;BME280;40903;51.638;7.528;2023-01-30T06:30:53;100798.28;;;5.80;100.00
55010;BME280;40903;51.638;7.528;2023-01-30T06:33:18;100801.25;;;5.79;100.00
55010;BME280;40903;51.638;7.528;2023-01-30T06:35:44;100812.16;;;5.89;100.00
55010;BME280;40903;51.638;7.528;2023-01-30T06:38:11;100816.22;;;5.86;100.00
55010;BME280;40903;51.638;7.528;2023-01-30T06:40:38;100812.44;;;5.87;100.00
55010;BME280;40903;51.638;7.528;2023-01-30T06:43:04;100819.75;;;5.92;100.00
55010;BME280;40903;51.638;7.528;2023-01-30T06:45:29;100824.38;;;5.91;100.00
55010;BME280;40903;51.638;7.528;2023-01-30T06:47:54;100829.50;;;5.93;100.00
55010;BME280;40903;51.638;7.528;2023-01-30T06:50:21;100826.78;;;5.93;100.00
55010;BME280;40903;51.638;7.528;2023-01-30T06:52:47;100830.84;;;5.90;100.00
55010;BME280;40903;51.638;7.528;2023-01-30T06:55:14;100829.56;;;5.98;100.00
55010;BME280;40903;51.638;7.528;2023-01-30T06:57:40;100818.97;;;5.96;100.00
55010;BME280;40903;51.638;7.528;2023-01-30T07:00:06;100812.81;;;6.01;100.00
55010;BME280;40903;51.638;7.528;2023-01-30T07:02:32;100816.06;;;6.03;100.00
55010;BME280;40903;51.638;7.528;2023-01-30T07:04:59;100809.25;;;6.00;100.00
55010;BME280;40903;51.638;7.528;2023-01-30T07:07:24;100817.13;;;6.02;100.00
55010;BME280;40903;51.638;7.528;2023-01-30T07:09:50;100810.13;;;6.06;100.00
55010;BME280;40903;51.638;7.528;2023-01-30T07:12:15;100811.19;;;6.05;100.00
55010;BME280;40903;51.638;7.528;2023-01-30T07:14:40;100809.88;;;6.07;100.00
55010;BME280;40903;51.638;7.528;2023-01-30T07:17:05;100817.69;;;6.04;100.00
55010;BME280;40903;51.638;7.528;2023-01-30T07:19:30;100819.88;;;6.07;100.00
55010;BME280;40903;51.638;7.528;2023-01-30T07:21:56;100833.72;;;6.10;100.00
55010;BME280;40903;51.638;7.528;2023-01-30T07:24:21;100838.88;;;6.12;100.00
55010;BME280;40903;51.638;7.528;2023-01-30T07:26:46;100838.63;;;6.13;100.00
55010;BME280;40903;51.638;7.528;2023-01-30T07:29:15;100835.69;;;6.20;100.00
55010;BME280;40903;51.638;7.528;2023-01-30T07:31:40;100843.81;;;6.20;100.00
55010;BME280;40903;51.638;7.528;2023-01-30T07:34:05;100842.75;;;6.21;100.00
55010;BME280;40903;51.638;7.528;2023-01-30T07:36:31;100835.69;;;6.20;100.00
55010;BME280;40903;51.638;7.528;2023-01-30T07:38:57;100850.06;;;6.20;100.00
55010;BME280;40903;51.638;7.528;2023-01-30T07:41:23;100849.53;;;6.23;100.00
55010;BME280;40903;51.638;7.528;2023-01-30T07:43:48;100856.34;;;6.26;100.00
55010;BME280;40903;51.638;7.528;2023-01-30T07:46:13;100849.28;;;6.25;100.00
55010;BME280;40903;51.638;7.528;2023-01-30T07:48:38;100857.69;;;6.28;100.00
55010;BME280;40903;51.638;7.528;2023-01-30T07:51:03;100855.53;;;6.30;100.00
55010;BME280;40903;51.638;7.528;2023-01-30T07:53:29;100868.81;;;6.32;100.00
55010;BME280;40903;51.638;7.528;2023-01-30T07:55:54;100861.53;;;6.32;100.00
55010;BME280;40903;51.638;7.528;2023-01-30T07:58:19;100857.19;;;6.31;100.00
55010;BME280;40903;51.638;7.528;2023-01-30T08:00:44;100855.03;;;6.33;100.00
55010;BME280;40903;51.638;7.528;2023-01-30T08:03:10;100853.97;;;6.34;100.00
55010;BME280;40903;51.638;7.528;2023-01-30T08:05:36;100848.25;;;6.31;100.00
55010;BME280;40903;51.638;7.528;2023-01-30T08:08:01;100856.91;;;6.33;100.00
55010;BME280;40903;51.638;7.528;2023-01-30T08:10:26;100863.44;;;6.37;100.00
55010;BME280;40903;51.638;7.528;2023-01-30T08:12:51;100859.16;;;6.41;100.00
55010;BME280;40903;51.638;7.528;2023-01-30T08:15:16;100876.97;;;6.37;100.00
55010;BME280;40903;51.638;7.528;2023-01-30T08:17:42;100891.03;;;6.34;100.00
55010;BME280;40903;51.638;7.528;2023-01-30T08:20:07;100883.22;;;6.37;100.00
55010;BME280;40903;51.638;7.528;2023-01-30T08:22:33;100900.25;;;6.33;100.00
55010;BME280;40903;51.638;7.528;2023-01-30T08:24:58;100909.69;;;6.30;100.00
55010;BME280;40903;51.638;7.528;2023-01-30T08:27:23;100899.16;;;6.34;100.00
55010;BME280;40903;51.638;7.528;2023-01-30T08:29:49;100900.53;;;6.31;100.00
55010;BME280;40903;51.638;7.528;2023-01-30T08:32:14;100906.97;;;6.30;100.00
55010;BME280;40903;51.638;7.528;2023-01-30T08:34:39;100891.78;;;6.24;100.00
55010;BME280;40903;51.638;7.528;2023-01-30T08:37:04;100907.78;;;6.26;100.00
55010;BME280;40903;51.638;7.528;2023-01-30T08:39:30;100910.72;;;6.24;100.00
55010;BME280;40903;51.638;7.528;2023-01-30T08:41:55;100915.06;;;6.25;100.00
55010;BME280;40903;51.638;7.528;2023-01-30T08:44:21;100910.97;;;6.23;100.00
55010;BME280;40903;51.638;7.528;2023-01-30T08:46:46;100919.69;;;6.25;100.00
55010;BME280;40903;51.638;7.528;2023-01-30T08:49:11;100909.34;;;6.22;100.00
55010;BME280;40903;51.638;7.528;2023-01-30T08:51:36;100915.84;;;6.21;100.00
55010;BME280;40903;51.638;7.528;2023-01-30T08:54:02;100915.28;;;6.19;100.00
55010;BME280;40903;51.638;7.528;2023-01-30T08:56:27;100924.78;;;6.21;100.00
55010;BME280;40903;51.638;7.528;2023-01-30T08:58:52;100922.41;;;6.25;100.00
55010;BME280;40903;51.638;7.528;2023-01-30T09:01:17;100930.56;;;6.30;100.00
55010;BME280;40903;51.638;7.528;2023-01-30T09:03:42;100921.34;;;6.31;100.00
55010;BME280;40903;51.638;7.528;2023-01-30T09:06:08;100934.66;;;6.32;100.00
55010;BME280;40903;51.638;7.528;2023-01-30T09:08:33;100939.25;;;6.32;100.00
55010;BME280;40903;51.638;7.528;2023-01-30T09:10:59;100926.00;;;6.35;100.00
55010;BME280;40903;51.638;7.528;2023-01-30T09:13:25;100935.00;;;6.41;100.00
55010;BME280;40903;51.638;7.528;2023-01-30T09:15:50;100941.78;;;6.43;100.00
55010;BME280;40903;51.638;7.528;2023-01-30T09:18:15;100933.44;;;6.50;100.00
55010;BME280;40903;51.638;7.528;2023-01-30T09:20:40;100932.91;;;6.53;100.00
55010;BME280;40903;51.638;7.528;2023-01-30T09:23:06;100933.78;;;6.58;100.00
55010;BME280;40903;51.638;7.528;2023-01-30T09:25:31;100930.56;;;6.61;100.00
55010;BME280;40903;51.638;7.528;2023-01-30T09:27:56;100926.47;;;6.59;100.00
55010;BME280;40903;51.638;7.528;2023-01-30T09:30:21;100931.63;;;6.60;100.00
55010;BME280;40903;51.638;7.528;2023-01-30T09:32:47;100932.97;;;6.58;100.00
55010;BME280;40903;51.638;7.528;2023-01-30T09:35:12;100938.94;;;6.60;100.00
55010;BME280;40903;51.638;7.528;2023-01-30T09:37:37;100946.25;;;6.59;100.00
55010;BME280;40903;51.638;7.528;2023-01-30T09:40:03;100965.50;;;6.63;100.00
55010;BME280;40903;51.638;7.528;2023-01-30T09:42:35;100964.72;;;6.62;100.00
55010;BME280;40903;51.638;7.528;2023-01-30T09:47:51;100950.56;;;6.55;100.00
55010;BME280;40903;51.638;7.528;2023-01-30T09:50:29;100970.59;;;6.54;100.00
55010;BME280;40903;51.638;7.528;2023-01-30T09:53:16;100966.50;;;6.52;100.00
55010;BME280;40903;51.638;7.528;2023-01-30T09:55:42;100967.00;;;6.49;100.00
55010;BME280;40903;51.638;7.528;2023-01-30T09:58:32;100970.28;;;6.51;100.00
55010;BME280;40903;51.638;7.528;2023-01-30T10:00:55;100968.13;;;6.53;100.00
55010;BME280;40903;51.638;7.528;2023-01-30T10:03:25;100968.13;;;6.53;100.00
55010;BME280;40903;51.638;7.528;2023-01-30T10:05:53;100971.66;;;6.53;100.00
55010;BME280;40903;51.638;7.528;2023-01-30T10:16:26;100963.66;;;7.00;96.00
55010;BME280;40903;51.638;7.528;2023-01-30T10:26:39;100957.16;;;7.06;95.95
55010;BME280;40903;51.638;7.528;2023-01-30T10:29:23;100944.91;;;6.98;95.11
55010;BME280;40903;51.638;7.528;2023-01-30T10:31:53;100953.59;;;6.95;96.55
55010;BME280;40903;51.638;7.528;2023-01-30T10:34:24;100953.28;;;6.92;94.89
55010;BME280;40903;51.638;7.528;2023-01-30T10:39:44;100949.47;;;6.88;96.54
55010;BME280;40903;51.638;7.528;2023-01-30T10:42:15;100943.97;;;6.83;97.08
55010;BME280;40903;51.638;7.528;2023-01-30T10:44:44;100953.47;;;6.80;96.58
55010;BME280;40903;51.638;7.528;2023-01-30T10:49:42;100961.09;;;6.88;95.58
55010;BME280;40903;51.638;7.528;2023-01-30T10:54:39;100966.59;;;6.98;95.41
55010;BME280;40903;51.638;7.528;2023-01-30T10:59:40;100968.00;;;7.01;94.41
55010;BME280;40903;51.638;7.528;2023-01-30T11:04:43;100972.06;;;7.03;93.95
55010;BME280;40903;51.638;7.528;2023-01-30T11:07:10;100969.41;;;7.08;93.79
55010;BME280;40903;51.638;7.528;2023-01-30T11:09:40;100971.59;;;7.11;91.93
55010;BME280;40903;51.638;7.528;2023-01-30T11:12:06;100971.03;;;7.09;92.70
55010;BME280;40903;51.638;7.528;2023-01-30T11:14:53;100971.81;;;7.10;91.76
55010;BME280;40903;51.638;7.528;2023-01-30T11:17:17;100981.56;;;7.06;93.90
55010;BME280;40903;51.638;7.528;2023-01-30T11:19:42;100977.75;;;7.02;93.29
55010;BME280;40903;51.638;7.528;2023-01-30T11:22:09;100988.28;;;6.98;93.08
55010;BME280;40903;51.638;7.528;2023-01-30T11:24:38;100985.03;;;6.96;94.03
55010;BME280;40903;51.638;7.528;2023-01-30T11:27:23;100982.03;;;6.98;94.34
55010;BME280;40903;51.638;7.528;2023-01-30T11:29:49;100993.41;;;6.95;93.38
55010;BME280;40903;51.638;7.528;2023-01-30T11:32:27;100986.09;;;6.95;95.17
55010;BME280;40903;51.638;7.528;2023-01-30T11:37:30;100981.50;;;6.96;97.02
55010;BME280;40903;51.638;7.528;2023-01-30T11:39:56;100992.34;;;6.96;96.22
55010;BME280;40903;51.638;7.528;2023-01-30T11:42:23;101000.22;;;6.97;98.68
55010;BME280;40903;51.638;7.528;2023-01-30T11:44:53;101000.19;;;6.92;100.00
55010;BME280;40903;51.638;7.528;2023-01-30T11:47:23;101009.66;;;6.90;100.00
55010;BME280;40903;51.638;7.528;2023-01-30T11:49:48;101000.69;;;6.89;100.00
55010;BME280;40903;51.638;7.528;2023-01-30T11:52:17;100995.00;;;6.91;100.00
55010;BME280;40903;51.638;7.528;2023-01-30T11:54:44;100982.84;;;6.93;100.00
55010;BME280;40903;51.638;7.528;2023-01-30T11:57:10;100987.44;;;6.93;100.00
55010;BME280;40903;51.638;7.528;2023-01-30T12:02:12;100988.53;;;6.97;98.79
55010;BME280;40903;51.638;7.528;2023-01-30T12:04:41;100985.06;;;7.01;97.85
55010;BME280;40903;51.638;7.528;2023-01-30T12:07:19;100997.50;;;6.97;97.03
55010;BME280;40903;51.638;7.528;2023-01-30T12:09:45;100994.56;;;7.04;94.50
55010;BME280;40903;51.638;7.528;2023-01-30T12:12:33;100988.44;;;7.18;95.06
55010;BME280;40903;51.638;7.528;2023-01-30T12:17:46;100991.31;;;7.48;91.54
55010;BME280;40903;51.638;7.528;2023-01-30T12:20:18;100985.72;;;7.65;90.88
55010;BME280;40903;51.638;7.528;2023-01-30T12:25:34;100986.88;;;7.78;88.56
55010;BME280;40903;51.638;7.528;2023-01-30T12:28:09;100990.13;;;7.80;89.45
55010;BME280;40903;51.638;7.528;2023-01-30T12:30:37;100989.28;;;7.80;88.37
55010;BME280;40903;51.638;7.528;2023-01-30T12:33:08;100977.88;;;7.78;87.45
55010;BME280;40903;51.638;7.528;2023-01-30T12:48:55;100973.53;;;7.72;87.71
55010;BME280;40903;51.638;7.528;2023-01-30T12:54:25;100978.72;;;7.78;84.45
55010;BME280;40903;51.638;7.528;2023-01-30T13:00:01;100993.09;;;7.74;83.68
55010;BME280;40903;51.638;7.528;2023-01-30T13:02:33;101007.19;;;7.66;84.01
55010;BME280;40903;51.638;7.528;2023-01-30T13:15:52;101012.75;;;7.45;87.36
55010;BME280;40903;51.638;7.528;2023-01-30T13:26:34;101011.25;;;7.68;79.88
55010;BME280;40903;51.638;7.528;2023-01-30T13:29:01;101013.16;;;7.73;80.27
55010;BME280;40903;51.638;7.528;2023-01-30T13:31:29;101009.38;;;7.79;78.37
55010;BME280;40903;51.638;7.528;2023-01-30T13:34:05;101018.34;;;7.79;77.55
55010;BME280;40903;51.638;7.528;2023-01-30T13:36:38;101015.09;;;7.82;76.73
55010;BME280;40903;51.638;7.528;2023-01-30T13:39:05;101017.81;;;7.82;77.03
55010;BME280;40903;51.638;7.528;2023-01-30T13:41:37;101008.06;;;7.86;76.86
55010;BME280;40903;51.638;7.528;2023-01-30T13:44:05;101026.03;;;7.97;77.77
55010;BME280;40903;51.638;7.528;2023-01-30T13:46:38;101029.34;;;8.09;77.40
55010;BME280;40903;51.638;7.528;2023-01-30T13:49:05;101043.00;;;8.19;75.77
55010;BME280;40903;51.638;7.528;2023-01-30T13:51:43;101048.97;;;8.21;74.06
55010;BME280;40903;51.638;7.528;2023-01-30T13:54:18;101042.47;;;8.22;75.21
55010;BME280;40903;51.638;7.528;2023-01-30T13:56:49;101048.91;;;8.16;74.48
55010;BME280;40903;51.638;7.528;2023-01-30T14:09:39;101066.53;;;8.09;73.65
55010;BME280;40903;51.638;7.528;2023-01-30T14:12:05;101077.69;;;8.12;73.68
55010;BME280;40903;51.638;7.528;2023-01-30T14:14:34;101070.16;;;8.19;74.45
55010;BME280;40903;51.638;7.528;2023-01-30T14:19:39;101068.47;;;8.13;73.71
55010;BME280;40903;51.638;7.528;2023-01-30T14:22:17;101072.25;;;8.12;74.38
55010;BME280;40903;51.638;7.528;2023-01-30T14:24:43;101079.84;;;8.10;74.04
55010;BME280;40903;51.638;7.528;2023-01-30T14:27:22;101069.00;;;8.10;73.70
55010;BME280;40903;51.638;7.528;2023-01-30T14:37:26;101133.75;;;7.82;80.74
55010;BME280;40903;51.638;7.528;2023-01-30T14:39:53;101154.84;;;7.70;83.70
55010;BME280;40903;51.638;7.528;2023-01-30T14:42:23;101153.94;;;7.60;83.60
55010;BME280;40903;51.638;7.528;2023-01-30T14:47:19;101142.13;;;7.39;89.10
55010;BME280;40903;51.638;7.528;2023-01-30T14:49:45;101150.41;;;7.28;90.50
55010;BME280;40903;51.638;7.528;2023-01-30T14:54:56;101155.19;;;7.16;91.94
55010;BME280;40903;51.638;7.528;2023-01-30T14:57:22;101168.25;;;7.19;89.54
55010;BME280;40903;51.638;7.528;2023-01-30T14:59:53;101178.25;;;7.18;89.02
55010;BME280;40903;51.638;7.528;2023-01-30T15:02:25;101172.84;;;7.18;87.99
55010;BME280;40903;51.638;7.528;2023-01-30T15:07:17;101178.88;;;7.25;83.21